sensor_id;sensor_type;location;lat;lon;timestamp;P1;durP1;ratioP1;P2;durP2;ratioP2
11522;SDS011;40093;43.224;27.910;2022-10-20T00:00:18;11.50;;;8.70;;
11522;SDS011;40093;43.224;27.910;2022-10-20T00:02:47;11.73;;;8.47;;
11522;SDS011;40093;43.224;27.910;2022-10-20T00:05:14;14.20;;;8.80;;
11522;SDS011;40093;43.224;27.910;2022-10-20T00:07:41;13.00;;;8.63;;
11522;SDS011;40093;43.224;27.910;2022-10-20T00:10:08;10.77;;;8.27;;
11522;SDS011;40093;43.224;27.910;2022-10-20T00:12:35;12.67;;;8.40;;
11522;SDS011;40093;43.224;27.910;2022-10-20T00:15:02;12.27;;;8.40;;
11522;SDS011;40093;43.224;27.910;2022-10-20T00:17:30;15.53;;;8.83;;
11522;SDS011;40093;43.224;27.910;2022-10-20T00:19:58;12.40;;;8.77;;
11522;SDS011;40093;43.224;27.910;2022-10-20T00:22:25;13.97;;;8.80;;
11522;SDS011;40093;43.224;27.910;2022-10-20T00:24:51;13.73;;;8.50;;
11522;SDS011;40093;43.224;27.910;2022-10-20T00:27:19;12.20;;;9.00;;
11522;SDS011;40093;43.224;27.910;2022-10-20T00:29:46;14.97;;;8.77;;
11522;SDS011;40093;43.224;27.910;2022-10-20T00:32:13;10.57;;;8.03;;
11522;SDS011;40093;43.224;27.910;2022-10-20T00:34:40;13.73;;;8.50;;
11522;SDS011;40093;43.224;27.910;2022-10-20T00:37:08;12.67;;;8.97;;
11522;SDS011;40093;43.224;27.910;2022-10-20T00:39:35;11.93;;;8.60;;
11522;SDS011;40093;43.224;27.910;2022-10-20T00:42:02;13.83;;;8.80;;
11522;SDS011;40093;43.224;27.910;2022-10-20T00:44:46;10.83;;;8.07;;
11522;SDS011;40093;43.224;27.910;2022-10-20T00:47:16;14.03;;;9.60;;
11522;SDS011;40093;43.224;27.910;2022-10-20T00:49:47;10.50;;;8.43;;
11522;SDS011;40093;43.224;27.910;2022-10-20T00:52:17;13.67;;;8.83;;
11522;SDS011;40093;43.224;27.910;2022-10-20T00:54:47;12.90;;;8.43;;
11522;SDS011;40093;43.224;27.910;2022-10-20T00:57:15;15.43;;;9.37;;
11522;SDS011;40093;43.224;27.910;2022-10-20T00:59:42;12.27;;;8.80;;
11522;SDS011;40093;43.224;27.910;2022-10-20T01:02:10;15.07;;;9.30;;
11522;SDS011;40093;43.224;27.910;2022-10-20T01:04:37;15.83;;;9.50;;
11522;SDS011;40093;43.224;27.910;2022-10-20T01:07:05;17.30;;;9.53;;
11522;SDS011;40093;43.224;27.910;2022-10-20T01:09:33;17.77;;;10.03;;
11522;SDS011;40093;43.224;27.910;2022-10-20T01:12:04;19.20;;;11.77;;
11522;SDS011;40093;43.224;27.910;2022-10-20T01:14:40;21.00;;;13.00;;
11522;SDS011;40093;43.224;27.910;2022-10-20T01:17:16;25.30;;;13.87;;
11522;SDS011;40093;43.224;27.910;2022-10-20T01:19:56;19.87;;;13.87;;
11522;SDS011;40093;43.224;27.910;2022-10-20T01:25:52;21.87;;;13.53;;
11522;SDS011;40093;43.224;27.910;2022-10-20T01:28:30;24.20;;;13.70;;
11522;SDS011;40093;43.224;27.910;2022-10-20T01:31:04;20.83;;;13.70;;
11522;SDS011;40093;43.224;27.910;2022-10-20T01:33:38;18.67;;;13.17;;
11522;SDS011;40093;43.224;27.910;2022-10-20T01:36:10;21.10;;;13.60;;
11522;SDS011;40093;43.224;27.910;2022-10-20T01:38:43;21.57;;;14.83;;
11522;SDS011;40093;43.224;27.910;2022-10-20T01:41:17;24.87;;;14.90;;
11522;SDS011;40093;43.224;27.910;2022-10-20T01:43:52;20.27;;;13.43;;
11522;SDS011;40093;43.224;27.910;2022-10-20T01:46:20;18.87;;;12.10;;
11522;SDS011;40093;43.224;27.910;2022-10-20T01:48:50;18.37;;;11.87;;
11522;SDS011;40093;43.224;27.910;2022-10-20T01:51:17;15.80;;;11.33;;
11522;SDS011;40093;43.224;27.910;2022-10-20T01:53:44;17.10;;;10.63;;
11522;SDS011;40093;43.224;27.910;2022-10-20T01:56:12;16.23;;;9.77;;
11522;SDS011;40093;43.224;27.910;2022-10-20T02:01:59;13.47;;;9.77;;
11522;SDS011;40093;43.224;27.910;2022-10-20T02:04:47;15.60;;;10.13;;
11522;SDS011;40093;43.224;27.910;2022-10-20T02:07:24;15.27;;;10.53;;
11522;SDS011;40093;43.224;27.910;2022-10-20T02:09:54;14.37;;;9.90;;
11522;SDS011;40093;43.224;27.910;2022-10-20T02:12:27;13.93;;;9.27;;
11522;SDS011;40093;43.224;27.910;2022-10-20T02:14:59;14.37;;;9.97;;
11522;SDS011;40093;43.224;27.910;2022-10-20T02:17:29;16.10;;;13.10;;
11522;SDS011;40093;43.224;27.910;2022-10-20T02:19:56;22.40;;;13.93;;
11522;SDS011;40093;43.224;27.910;2022-10-20T02:22:24;18.83;;;13.80;;
11522;SDS011;40093;43.224;27.910;2022-10-20T02:24:52;24.43;;;14.67;;
11522;SDS011;40093;43.224;27.910;2022-10-20T02:27:19;21.50;;;15.23;;
11522;SDS011;40093;43.224;27.910;2022-10-20T02:29:51;23.67;;;14.97;;
11522;SDS011;40093;43.224;27.910;2022-10-20T02:32:22;23.93;;;12.77;;
11522;SDS011;40093;43.224;27.910;2022-10-20T02:34:52;15.83;;;12.83;;
11522;SDS011;40093;43.224;27.910;2022-10-20T02:37:19;21.00;;;14.37;;
11522;SDS011;40093;43.224;27.910;2022-10-20T02:39:45;25.53;;;13.33;;
11522;SDS011;40093;43.224;27.910;2022-10-20T02:42:12;22.63;;;14.53;;
11522;SDS011;40093;43.224;27.910;2022-10-20T02:44:41;21.27;;;14.80;;
11522;SDS011;40093;43.224;27.910;2022-10-20T02:47:08;20.30;;;15.33;;
11522;SDS011;40093;43.224;27.910;2022-10-20T02:49:35;19.80;;;14.73;;
11522;SDS011;40093;43.224;27.910;2022-10-20T02:52:03;22.37;;;14.53;;
11522;SDS011;40093;43.224;27.910;2022-10-20T02:54:30;23.33;;;14.90;;
11522;SDS011;40093;43.224;27.910;2022-10-20T02:56:57;26.63;;;15.43;;
11522;SDS011;40093;43.224;27.910;2022-10-20T02:59:24;23.73;;;15.93;;
11522;SDS011;40093;43.224;27.910;2022-10-20T03:01:51;21.40;;;15.23;;
11522;SDS011;40093;43.224;27.910;2022-10-20T03:04:18;20.70;;;14.57;;
11522;SDS011;40093;43.224;27.910;2022-10-20T03:06:44;18.30;;;14.20;;
11522;SDS011;40093;43.224;27.910;2022-10-20T03:09:14;20.20;;;14.43;;
11522;SDS011;40093;43.224;27.910;2022-10-20T03:11:41;19.53;;;13.97;;
11522;SDS011;40093;43.224;27.910;2022-10-20T03:14:09;21.70;;;14.60;;
11522;SDS011;40093;43.224;27.910;2022-10-20T03:16:36;19.10;;;14.20;;
11522;SDS011;40093;43.224;27.910;2022-10-20T03:19:03;25.27;;;15.47;;
11522;SDS011;40093;43.224;27.910;2022-10-20T03:21:30;22.07;;;16.60;;
11522;SDS011;40093;43.224;27.910;2022-10-20T03:23:57;25.17;;;15.80;;
11522;SDS011;40093;43.224;27.910;2022-10-20T03:26:25;22.60;;;15.30;;
11522;SDS011;40093;43.224;27.910;2022-10-20T03:28:52;23.93;;;15.10;;
11522;SDS011;40093;43.224;27.910;2022-10-20T03:31:19;21.97;;;14.50;;
11522;SDS011;40093;43.224;27.910;2022-10-20T03:33:46;21.93;;;15.93;;
11522;SDS011;40093;43.224;27.910;2022-10-20T03:36:14;27.10;;;20.13;;
11522;SDS011;40093;43.224;27.910;2022-10-20T03:38:42;22.67;;;15.50;;
11522;SDS011;40093;43.224;27.910;2022-10-20T03:41:13;22.10;;;14.93;;
11522;SDS011;40093;43.224;27.910;2022-10-20T03:43:41;18.87;;;13.37;;
11522;SDS011;40093;43.224;27.910;2022-10-20T03:46:09;18.47;;;13.40;;
11522;SDS011;40093;43.224;27.910;2022-10-20T03:48:37;17.77;;;13.57;;
11522;SDS011;40093;43.224;27.910;2022-10-20T03:51:05;19.23;;;11.57;;
11522;SDS011;40093;43.224;27.910;2022-10-20T03:53:33;17.30;;;10.73;;
11522;SDS011;40093;43.224;27.910;2022-10-20T03:56:04;16.87;;;11.90;;
11522;SDS011;40093;43.224;27.910;2022-10-20T03:58:32;21.53;;;13.63;;
11522;SDS011;40093;43.224;27.910;2022-10-20T04:01:01;23.40;;;14.37;;
11522;SDS011;40093;43.224;27.910;2022-10-20T04:03:30;19.87;;;13.83;;
11522;SDS011;40093;43.224;27.910;2022-10-20T04:05:57;22.97;;;14.20;;
11522;SDS011;40093;43.224;27.910;2022-10-20T04:08:32;21.43;;;14.20;;
11522;SDS011;40093;43.224;27.910;2022-10-20T04:10:59;22.33;;;15.67;;
11522;SDS011;40093;43.224;27.910;2022-10-20T04:13:26;22.07;;;14.27;;
11522;SDS011;40093;43.224;27.910;2022-10-20T04:15:52;19.43;;;14.67;;
11522;SDS011;40093;43.224;27.910;2022-10-20T04:18:21;20.27;;;14.33;;
11522;SDS011;40093;43.224;27.910;2022-10-20T04:20:47;19.40;;;14.93;;
11522;SDS011;40093;43.224;27.910;2022-10-20T04:23:14;25.07;;;15.77;;
11522;SDS011;40093;43.224;27.910;2022-10-20T04:25:41;21.57;;;13.90;;
11522;SDS011;40093;43.224;27.910;2022-10-20T04:28:11;27.50;;;15.30;;
11522;SDS011;40093;43.224;27.910;2022-10-20T04:30:38;21.43;;;15.00;;
11522;SDS011;40093;43.224;27.910;2022-10-20T04:33:05;22.67;;;14.53;;
11522;SDS011;40093;43.224;27.910;2022-10-20T04:35:33;22.67;;;14.67;;
11522;SDS011;40093;43.224;27.910;2022-10-20T04:38:01;17.70;;;12.63;;
11522;SDS011;40093;43.224;27.910;2022-10-20T04:40:27;20.13;;;12.87;;
11522;SDS011;40093;43.224;27.910;2022-10-20T04:42:57;20.40;;;13.20;;
11522;SDS011;40093;43.224;27.910;2022-10-20T04:45:25;20.63;;;11.83;;
11522;SDS011;40093;43.224;27.910;2022-10-20T04:47:52;14.70;;;9.53;;
11522;SDS011;40093;43.224;27.910;2022-10-20T04:50:19;16.37;;;9.83;;
11522;SDS011;40093;43.224;27.910;2022-10-20T04:52:47;10.73;;;8.50;;
11522;SDS011;40093;43.224;27.910;2022-10-20T04:55:15;9.53;;;4.83;;
11522;SDS011;40093;43.224;27.910;2022-10-20T04:57:42;7.77;;;5.30;;
11522;SDS011;40093;43.224;27.910;2022-10-20T05:00:09;6.73;;;4.87;;
11522;SDS011;40093;43.224;27.910;2022-10-20T05:02:37;6.40;;;5.20;;
11522;SDS011;40093;43.224;27.910;2022-10-20T05:05:04;8.57;;;4.80;;
11522;SDS011;40093;43.224;27.910;2022-10-20T05:07:31;6.83;;;5.30;;
11522;SDS011;40093;43.224;27.910;2022-10-20T05:09:59;6.97;;;4.40;;
11522;SDS011;40093;43.224;27.910;2022-10-20T05:12:26;11.67;;;5.30;;
11522;SDS011;40093;43.224;27.910;2022-10-20T05:14:53;7.13;;;4.50;;
11522;SDS011;40093;43.224;27.910;2022-10-20T05:17:20;5.87;;;4.60;;
11522;SDS011;40093;43.224;27.910;2022-10-20T05:19:47;8.37;;;4.20;;
11522;SDS011;40093;43.224;27.910;2022-10-20T05:22:14;4.20;;;3.67;;
11522;SDS011;40093;43.224;27.910;2022-10-20T05:24:41;5.50;;;3.70;;
11522;SDS011;40093;43.224;27.910;2022-10-20T05:27:09;4.37;;;3.10;;
11522;SDS011;40093;43.224;27.910;2022-10-20T05:29:36;7.93;;;3.70;;
11522;SDS011;40093;43.224;27.910;2022-10-20T05:32:03;3.60;;;2.77;;
11522;SDS011;40093;43.224;27.910;2022-10-20T05:34:30;4.60;;;3.10;;
11522;SDS011;40093;43.224;27.910;2022-10-20T05:36:56;9.30;;;3.47;;
11522;SDS011;40093;43.224;27.910;2022-10-20T05:39:23;3.97;;;2.93;;
11522;SDS011;40093;43.224;27.910;2022-10-20T05:41:50;3.90;;;2.60;;
11522;SDS011;40093;43.224;27.910;2022-10-20T05:44:18;3.13;;;2.50;;
11522;SDS011;40093;43.224;27.910;2022-10-20T05:46:45;2.50;;;2.30;;
11522;SDS011;40093;43.224;27.910;2022-10-20T05:49:13;4.63;;;2.37;;
11522;SDS011;40093;43.224;27.910;2022-10-20T05:51:41;4.67;;;2.60;;
11522;SDS011;40093;43.224;27.910;2022-10-20T05:54:10;2.97;;;2.30;;
11522;SDS011;40093;43.224;27.910;2022-10-20T05:56:37;3.43;;;2.20;;
11522;SDS011;40093;43.224;27.910;2022-10-20T05:59:05;3.57;;;2.30;;
11522;SDS011;40093;43.224;27.910;2022-10-20T06:01:33;4.50;;;2.10;;
11522;SDS011;40093;43.224;27.910;2022-10-20T09:29:49;2.70;;;1.80;;
11522;SDS011;40093;43.224;27.910;2022-10-20T09:32:18;4.47;;;2.47;;
11522;SDS011;40093;43.224;27.910;2022-10-20T09:34:47;4.80;;;1.70;;
11522;SDS011;40093;43.224;27.910;2022-10-20T09:37:15;3.83;;;1.70;;
11522;SDS011;40093;43.224;27.910;2022-10-20T09:39:49;5.80;;;2.30;;
11522;SDS011;40093;43.224;27.910;2022-10-20T09:42:18;4.13;;;1.83;;
11522;SDS011;40093;43.224;27.910;2022-10-20T09:44:50;5.33;;;2.00;;
11522;SDS011;40093;43.224;27.910;2022-10-20T09:47:19;4.40;;;1.73;;
11522;SDS011;40093;43.224;27.910;2022-10-20T09:49:51;3.70;;;1.70;;
11522;SDS011;40093;43.224;27.910;2022-10-20T09:52:22;6.37;;;1.87;;
11522;SDS011;40093;43.224;27.910;2022-10-20T09:54:57;6.10;;;1.83;;
11522;SDS011;40093;43.224;27.910;2022-10-20T09:57:26;6.10;;;1.90;;
11522;SDS011;40093;43.224;27.910;2022-10-20T09:59:55;3.43;;;1.97;;
11522;SDS011;40093;43.224;27.910;2022-10-20T10:02:27;5.27;;;2.10;;
11522;SDS011;40093;43.224;27.910;2022-10-20T10:07:40;4.30;;;1.77;;
11522;SDS011;40093;43.224;27.910;2022-10-20T10:10:24;2.07;;;1.63;;
11522;SDS011;40093;43.224;27.910;2022-10-20T10:12:53;6.03;;;2.17;;
11522;SDS011;40093;43.224;27.910;2022-10-20T10:15:26;6.33;;;1.80;;
11522;SDS011;40093;43.224;27.910;2022-10-20T10:17:55;2.80;;;1.70;;
11522;SDS011;40093;43.224;27.910;2022-10-20T10:20:33;4.37;;;1.80;;
11522;SDS011;40093;43.224;27.910;2022-10-20T10:23:07;5.93;;;1.90;;
11522;SDS011;40093;43.224;27.910;2022-10-20T10:25:42;4.90;;;2.10;;
11522;SDS011;40093;43.224;27.910;2022-10-20T10:28:18;4.10;;;2.10;;
11522;SDS011;40093;43.224;27.910;2022-10-20T10:30:50;2.67;;;2.00;;
11522;SDS011;40093;43.224;27.910;2022-10-20T10:33:32;2.47;;;1.80;;
11522;SDS011;40093;43.224;27.910;2022-10-20T10:36:00;3.07;;;2.00;;
11522;SDS011;40093;43.224;27.910;2022-10-20T10:38:28;7.10;;;2.50;;
11522;SDS011;40093;43.224;27.910;2022-10-20T10:40:59;6.47;;;2.53;;
11522;SDS011;40093;43.224;27.910;2022-10-20T10:43:34;8.20;;;2.80;;
11522;SDS011;40093;43.224;27.910;2022-10-20T10:46:07;4.93;;;2.40;;
11522;SDS011;40093;43.224;27.910;2022-10-20T10:48:42;5.20;;;2.20;;
11522;SDS011;40093;43.224;27.910;2022-10-20T10:51:22;10.03;;;2.47;;
11522;SDS011;40093;43.224;27.910;2022-10-20T10:54:03;3.40;;;2.50;;
11522;SDS011;40093;43.224;27.910;2022-10-20T10:56:40;4.93;;;2.10;;
11522;SDS011;40093;43.224;27.910;2022-10-20T10:59:10;10.33;;;2.40;;
11522;SDS011;40093;43.224;27.910;2022-10-20T11:01:49;5.93;;;2.47;;
11522;SDS011;40093;43.224;27.910;2022-10-20T11:04:28;5.00;;;2.27;;
11522;SDS011;40093;43.224;27.910;2022-10-20T11:07:11;3.50;;;2.13;;
11522;SDS011;40093;43.224;27.910;2022-10-20T11:09:49;4.03;;;2.30;;
11522;SDS011;40093;43.224;27.910;2022-10-20T11:12:35;5.00;;;2.60;;
11522;SDS011;40093;43.224;27.910;2022-10-20T11:15:23;7.70;;;2.57;;
11522;SDS011;40093;43.224;27.910;2022-10-20T11:18:02;2.63;;;2.43;;
11522;SDS011;40093;43.224;27.910;2022-10-20T11:20:38;4.87;;;2.30;;
11522;SDS011;40093;43.224;27.910;2022-10-20T11:23:19;6.33;;;2.70;;
11522;SDS011;40093;43.224;27.910;2022-10-20T11:26:08;5.97;;;2.10;;
11522;SDS011;40093;43.224;27.910;2022-10-20T11:28:42;6.03;;;2.50;;
11522;SDS011;40093;43.224;27.910;2022-10-20T11:31:15;6.40;;;2.50;;
11522;SDS011;40093;43.224;27.910;2022-10-20T11:33:50;4.77;;;2.20;;
11522;SDS011;40093;43.224;27.910;2022-10-20T11:36:22;3.60;;;1.93;;
11522;SDS011;40093;43.224;27.910;2022-10-20T11:38:57;6.40;;;2.17;;
11522;SDS011;40093;43.224;27.910;2022-10-20T11:41:25;5.13;;;2.30;;
11522;SDS011;40093;43.224;27.910;2022-10-20T11:43:58;6.07;;;2.10;;
11522;SDS011;40093;43.224;27.910;2022-10-20T11:46:31;6.73;;;2.80;;
11522;SDS011;40093;43.224;27.910;2022-10-20T11:49:03;5.93;;;3.60;;
11522;SDS011;40093;43.224;27.910;2022-10-20T11:54:46;7.67;;;2.83;;
11522;SDS011;40093;43.224;27.910;2022-10-20T11:57:30;6.50;;;2.10;;
11522;SDS011;40093;43.224;27.910;2022-10-20T12:00:27;3.10;;;1.90;;
11522;SDS011;40093;43.224;27.910;2022-10-20T12:03:10;4.17;;;2.27;;
11522;SDS011;40093;43.224;27.910;2022-10-20T12:09:11;6.83;;;2.20;;
11522;SDS011;40093;43.224;27.910;2022-10-20T12:11:54;7.57;;;2.37;;
11522;SDS011;40093;43.224;27.910;2022-10-20T12:14:27;5.63;;;2.60;;
11522;SDS011;40093;43.224;27.910;2022-10-20T12:17:02;3.53;;;2.23;;
11522;SDS011;40093;43.224;27.910;2022-10-20T12:19:37;6.17;;;2.20;;
11522;SDS011;40093;43.224;27.910;2022-10-20T12:22:05;8.87;;;2.30;;
11522;SDS011;40093;43.224;27.910;2022-10-20T12:31:05;6.97;;;2.70;;
11522;SDS011;40093;43.224;27.910;2022-10-20T12:33:36;4.80;;;2.67;;
11522;SDS011;40093;43.224;27.910;2022-10-20T12:36:12;6.23;;;2.23;;
11522;SDS011;40093;43.224;27.910;2022-10-20T12:38:49;3.70;;;2.00;;
11522;SDS011;40093;43.224;27.910;2022-10-20T12:41:25;8.23;;;2.40;;
11522;SDS011;40093;43.224;27.910;2022-10-20T12:43:57;8.67;;;2.40;;
11522;SDS011;40093;43.224;27.910;2022-10-20T12:46:28;7.17;;;2.37;;
11522;SDS011;40093;43.224;27.910;2022-10-20T12:48:57;6.20;;;2.50;;
11522;SDS011;40093;43.224;27.910;2022-10-20T12:51:35;6.47;;;4.40;;
11522;SDS011;40093;43.224;27.910;2022-10-20T12:54:07;9.50;;;4.70;;
11522;SDS011;40093;43.224;27.910;2022-10-20T12:56:44;6.67;;;3.53;;
11522;SDS011;40093;43.224;27.910;2022-10-20T12:59:23;7.50;;;3.10;;
11522;SDS011;40093;43.224;27.910;2022-10-20T13:08:20;5.90;;;3.00;;
11522;SDS011;40093;43.224;27.910;2022-10-20T13:10:51;8.20;;;2.57;;
11522;SDS011;40093;43.224;27.910;2022-10-20T13:13:42;7.27;;;2.17;;
11522;SDS011;40093;43.224;27.910;2022-10-20T13:16:20;4.37;;;2.20;;
11522;SDS011;40093;43.224;27.910;2022-10-20T13:18:48;8.37;;;2.63;;
11522;SDS011;40093;43.224;27.910;2022-10-20T13:21:19;5.50;;;2.30;;
11522;SDS011;40093;43.224;27.910;2022-10-20T13:23:53;6.40;;;2.17;;
11522;SDS011;40093;43.224;27.910;2022-10-20T13:26:27;3.63;;;1.90;;
11522;SDS011;40093;43.224;27.910;2022-10-20T13:28:56;4.67;;;2.30;;
11522;SDS011;40093;43.224;27.910;2022-10-20T13:31:28;8.90;;;2.50;;
11522;SDS011;40093;43.224;27.910;2022-10-20T13:34:01;6.87;;;2.60;;
11522;SDS011;40093;43.224;27.910;2022-10-20T13:36:43;6.63;;;2.90;;
11522;SDS011;40093;43.224;27.910;2022-10-20T13:39:21;6.63;;;2.20;;
11522;SDS011;40093;43.224;27.910;2022-10-20T13:41:58;4.40;;;1.80;;
11522;SDS011;40093;43.224;27.910;2022-10-20T13:44:41;5.47;;;3.00;;
11522;SDS011;40093;43.224;27.910;2022-10-20T13:47:22;5.87;;;3.33;;
11522;SDS011;40093;43.224;27.910;2022-10-20T13:49:59;8.47;;;3.43;;
11522;SDS011;40093;43.224;27.910;2022-10-20T13:52:30;7.33;;;2.10;;
11522;SDS011;40093;43.224;27.910;2022-10-20T13:54:59;4.13;;;2.20;;
11522;SDS011;40093;43.224;27.910;2022-10-20T13:57:27;4.70;;;2.10;;
11522;SDS011;40093;43.224;27.910;2022-10-20T13:59:57;5.17;;;2.77;;
11522;SDS011;40093;43.224;27.910;2022-10-20T14:02:27;5.70;;;3.40;;
11522;SDS011;40093;43.224;27.910;2022-10-20T14:05:02;4.13;;;2.63;;
11522;SDS011;40093;43.224;27.910;2022-10-20T14:07:34;6.20;;;2.37;;
11522;SDS011;40093;43.224;27.910;2022-10-20T14:10:02;7.23;;;2.60;;
11522;SDS011;40093;43.224;27.910;2022-10-20T14:12:30;5.70;;;3.20;;
11522;SDS011;40093;43.224;27.910;2022-10-20T14:14:58;5.77;;;2.67;;
11522;SDS011;40093;43.224;27.910;2022-10-20T14:17:26;7.23;;;3.60;;
11522;SDS011;40093;43.224;27.910;2022-10-20T14:20:06;6.47;;;2.53;;
11522;SDS011;40093;43.224;27.910;2022-10-20T14:22:34;3.70;;;2.23;;
11522;SDS011;40093;43.224;27.910;2022-10-20T14:25:08;2.27;;;1.80;;
11522;SDS011;40093;43.224;27.910;2022-10-20T14:27:37;2.93;;;1.73;;
11522;SDS011;40093;43.224;27.910;2022-10-20T14:30:05;7.07;;;2.53;;
11522;SDS011;40093;43.224;27.910;2022-10-20T14:32:37;4.73;;;2.00;;
11522;SDS011;40093;43.224;27.910;2022-10-20T14:35:13;7.30;;;3.20;;
11522;SDS011;40093;43.224;27.910;2022-10-20T14:37:45;4.33;;;2.50;;
11522;SDS011;40093;43.224;27.910;2022-10-20T14:40:18;4.83;;;2.40;;
11522;SDS011;40093;43.224;27.910;2022-10-20T14:42:46;7.17;;;2.80;;
11522;SDS011;40093;43.224;27.910;2022-10-20T14:45:18;5.47;;;2.63;;
11522;SDS011;40093;43.224;27.910;2022-10-20T14:47:48;6.70;;;2.53;;
11522;SDS011;40093;43.224;27.910;2022-10-20T14:50:18;6.33;;;2.10;;
11522;SDS011;40093;43.224;27.910;2022-10-20T14:52:48;6.57;;;2.40;;
11522;SDS011;40093;43.224;27.910;2022-10-20T14:55:31;3.33;;;2.20;;
11522;SDS011;40093;43.224;27.910;2022-10-20T14:57:59;5.17;;;2.33;;
11522;SDS011;40093;43.224;27.910;2022-10-20T15:00:30;6.03;;;2.87;;
11522;SDS011;40093;43.224;27.910;2022-10-20T15:03:02;5.17;;;2.57;;
11522;SDS011;40093;43.224;27.910;2022-10-20T15:05:41;9.47;;;2.90;;
11522;SDS011;40093;43.224;27.910;2022-10-20T15:08:13;6.30;;;3.17;;
11522;SDS011;40093;43.224;27.910;2022-10-20T15:10:43;7.03;;;3.97;;
11522;SDS011;40093;43.224;27.910;2022-10-20T15:13:18;5.33;;;2.87;;
11522;SDS011;40093;43.224;27.910;2022-10-20T15:15:47;6.47;;;3.57;;
11522;SDS011;40093;43.224;27.910;2022-10-20T15:18:16;4.73;;;3.03;;
11522;SDS011;40093;43.224;27.910;2022-10-20T15:20:44;5.53;;;3.20;;
11522;SDS011;40093;43.224;27.910;2022-10-20T15:23:13;6.53;;;2.93;;
11522;SDS011;40093;43.224;27.910;2022-10-20T15:25:44;4.10;;;3.10;;
11522;SDS011;40093;43.224;27.910;2022-10-20T15:28:19;4.43;;;2.80;;
11522;SDS011;40093;43.224;27.910;2022-10-20T15:30:50;8.37;;;3.50;;
11522;SDS011;40093;43.224;27.910;2022-10-20T15:33:18;7.93;;;3.80;;
11522;SDS011;40093;43.224;27.910;2022-10-20T15:35:45;5.93;;;3.83;;
11522;SDS011;40093;43.224;27.910;2022-10-20T15:38:12;6.10;;;3.10;;
11522;SDS011;40093;43.224;27.910;2022-10-20T15:40:40;9.13;;;3.97;;
11522;SDS011;40093;43.224;27.910;2022-10-20T15:43:08;5.33;;;3.50;;
11522;SDS011;40093;43.224;27.910;2022-10-20T15:45:37;9.10;;;3.20;;
11522;SDS011;40093;43.224;27.910;2022-10-20T15:48:06;10.03;;;4.53;;
11522;SDS011;40093;43.224;27.910;2022-10-20T15:50:34;4.03;;;2.73;;
11522;SDS011;40093;43.224;27.910;2022-10-20T15:53:02;7.80;;;4.20;;
11522;SDS011;40093;43.224;27.910;2022-10-20T15:55:29;6.47;;;3.30;;
11522;SDS011;40093;43.224;27.910;2022-10-20T15:57:57;10.33;;;4.47;;
11522;SDS011;40093;43.224;27.910;2022-10-20T16:00:26;7.47;;;3.63;;
11522;SDS011;40093;43.224;27.910;2022-10-20T16:02:54;9.03;;;3.73;;
11522;SDS011;40093;43.224;27.910;2022-10-20T16:05:22;10.37;;;5.50;;
11522;SDS011;40093;43.224;27.910;2022-10-20T16:07:51;10.73;;;3.80;;
11522;SDS011;40093;43.224;27.910;2022-10-20T16:10:19;10.27;;;5.43;;
11522;SDS011;40093;43.224;27.910;2022-10-20T16:12:46;6.73;;;3.20;;
11522;SDS011;40093;43.224;27.910;2022-10-20T16:15:14;8.20;;;3.30;;
11522;SDS011;40093;43.224;27.910;2022-10-20T16:17:41;8.83;;;4.20;;
11522;SDS011;40093;43.224;27.910;2022-10-20T16:20:08;53.57;;;42.50;;
11522;SDS011;40093;43.224;27.910;2022-10-20T16:22:36;46.97;;;36.73;;
11522;SDS011;40093;43.224;27.910;2022-10-20T16:25:05;22.40;;;15.43;;
11522;SDS011;40093;43.224;27.910;2022-10-20T16:27:34;10.73;;;8.10;;
11522;SDS011;40093;43.224;27.910;2022-10-20T16:30:03;8.07;;;5.67;;
11522;SDS011;40093;43.224;27.910;2022-10-20T16:32:30;20.77;;;12.67;;
11522;SDS011;40093;43.224;27.910;2022-10-20T16:34:58;15.70;;;8.67;;
11522;SDS011;40093;43.224;27.910;2022-10-20T16:37:25;15.33;;;7.00;;
11522;SDS011;40093;43.224;27.910;2022-10-20T16:39:52;13.47;;;7.23;;
11522;SDS011;40093;43.224;27.910;2022-10-20T16:42:21;7.83;;;4.20;;
11522;SDS011;40093;43.224;27.910;2022-10-20T16:44:47;10.93;;;3.97;;
11522;SDS011;40093;43.224;27.910;2022-10-20T16:47:14;6.20;;;3.60;;
11522;SDS011;40093;43.224;27.910;2022-10-20T16:49:41;6.17;;;3.50;;
11522;SDS011;40093;43.224;27.910;2022-10-20T16:52:08;13.43;;;7.60;;
11522;SDS011;40093;43.224;27.910;2022-10-20T16:54:35;6.93;;;4.97;;
11522;SDS011;40093;43.224;27.910;2022-10-20T16:57:02;12.27;;;7.63;;
11522;SDS011;40093;43.224;27.910;2022-10-20T16:59:32;13.53;;;7.90;;
11522;SDS011;40093;43.224;27.910;2022-10-20T17:02:00;7.67;;;4.70;;
11522;SDS011;40093;43.224;27.910;2022-10-20T17:04:27;11.60;;;6.00;;
11522;SDS011;40093;43.224;27.910;2022-10-20T17:06:55;9.07;;;6.53;;
11522;SDS011;40093;43.224;27.910;2022-10-20T17:09:22;7.17;;;4.87;;
11522;SDS011;40093;43.224;27.910;2022-10-20T17:11:50;10.47;;;5.83;;
11522;SDS011;40093;43.224;27.910;2022-10-20T17:14:17;8.10;;;4.13;;
11522;SDS011;40093;43.224;27.910;2022-10-20T17:16:45;5.60;;;3.40;;
11522;SDS011;40093;43.224;27.910;2022-10-20T17:19:12;6.67;;;4.17;;
11522;SDS011;40093;43.224;27.910;2022-10-20T17:21:39;6.40;;;3.87;;
11522;SDS011;40093;43.224;27.910;2022-10-20T17:24:08;10.00;;;4.13;;
11522;SDS011;40093;43.224;27.910;2022-10-20T17:26:37;12.27;;;5.53;;
11522;SDS011;40093;43.224;27.910;2022-10-20T17:29:05;7.97;;;3.70;;
11522;SDS011;40093;43.224;27.910;2022-10-20T17:31:33;7.63;;;3.77;;
11522;SDS011;40093;43.224;27.910;2022-10-20T17:34:02;7.40;;;3.60;;
11522;SDS011;40093;43.224;27.910;2022-10-20T17:36:29;8.57;;;3.70;;
11522;SDS011;40093;43.224;27.910;2022-10-20T17:38:57;8.27;;;4.50;;
11522;SDS011;40093;43.224;27.910;2022-10-20T17:41:25;8.90;;;6.40;;
11522;SDS011;40093;43.224;27.910;2022-10-20T17:43:52;8.20;;;4.47;;
11522;SDS011;40093;43.224;27.910;2022-10-20T17:46:20;9.30;;;4.20;;
11522;SDS011;40093;43.224;27.910;2022-10-20T17:48:49;11.53;;;6.63;;
11522;SDS011;40093;43.224;27.910;2022-10-20T17:51:18;9.13;;;4.43;;
11522;SDS011;40093;43.224;27.910;2022-10-20T17:53:47;7.30;;;4.10;;
11522;SDS011;40093;43.224;27.910;2022-10-20T17:56:16;8.43;;;4.70;;
11522;SDS011;40093;43.224;27.910;2022-10-20T17:58:45;7.90;;;4.77;;
11522;SDS011;40093;43.224;27.910;2022-10-20T18:01:15;11.87;;;4.37;;
11522;SDS011;40093;43.224;27.910;2022-10-20T18:03:43;8.40;;;4.53;;
11522;SDS011;40093;43.224;27.910;2022-10-20T18:06:11;5.30;;;3.30;;
11522;SDS011;40093;43.224;27.910;2022-10-20T18:08:41;8.10;;;4.50;;
11522;SDS011;40093;43.224;27.910;2022-10-20T18:11:09;12.33;;;3.80;;
11522;SDS011;40093;43.224;27.910;2022-10-20T18:13:36;7.57;;;3.97;;
11522;SDS011;40093;43.224;27.910;2022-10-20T18:16:05;6.87;;;3.50;;
11522;SDS011;40093;43.224;27.910;2022-10-20T18:18:33;8.10;;;5.50;;
11522;SDS011;40093;43.224;27.910;2022-10-20T18:21:00;7.47;;;4.20;;
11522;SDS011;40093;43.224;27.910;2022-10-20T18:23:27;6.17;;;3.50;;
11522;SDS011;40093;43.224;27.910;2022-10-20T18:25:56;12.07;;;3.83;;
11522;SDS011;40093;43.224;27.910;2022-10-20T18:28:30;6.57;;;3.60;;
11522;SDS011;40093;43.224;27.910;2022-10-20T18:31:02;6.97;;;4.03;;
11522;SDS011;40093;43.224;27.910;2022-10-20T18:33:29;8.27;;;3.83;;
11522;SDS011;40093;43.224;27.910;2022-10-20T18:35:59;8.30;;;3.70;;
11522;SDS011;40093;43.224;27.910;2022-10-20T18:38:27;6.60;;;4.43;;